Windsor Heights, West Virginia
Current Conditions -  °F | °C
As of 9:53 PM on Sunday 23 Nov 2014 (Local Time) from KHLG Reporting Station
Light Rain Light Rain  
Wind Chill: 54°   Ceiling: 10000
Heat Index: 54°   Visibility: 10mi
Dew Point: 49°   Wind: 13mph
Humidity: 83%   Direction: 120°ESE
Pressure: 29.57"   Gusts: NA
Location:  40.19°N, 80.67°W
Report Text: KHLG 240253Z AUTO 12011KT 10SM -RA FEW070 OVC100 12/09 A2957 RMK AO2 RAB0157 PRESFR SLP015 P0004 60004 T01220094 58044
Loading
Personal Weather Stations






























Interactive Weather Map New forecast layout! Learn more

10-Day Weather Forecast

Advertisements
Track Severe Weather on mobile